Home   Weather   Germany   Sangerhausen   Past weeks
Flag for Germany

Past Weather in Sangerhausen, Saxony-Anhalt, Germany — Yesterday and Last 2 Weeks

Currently: 72 °F. Passing clouds. (Weather station: Erfurt-Bindersleben, Germany). See more current weather

Past Weather in Sangerhausen — Graph

°F

Sangerhausen Temperature Yesterday

Maximum temperature yesterday: 88 °F (at 4:50 pm)
Minimum temperature yesterday: 64 °F (at 5:20 am)
Average temperature yesterday: 76 °F

High & Low Weather Summary for the Past Weeks

 TemperatureHumidityPressure
High90 °F (Jun 17, 2:20 pm)100% (Jun 5, 3:50 am)30.33 "Hg (Jun 5, 3:50 am)
Low48 °F (Jun 14, 3:20 am)29% (Jun 14, 1:20 pm)29.83 "Hg (Jun 20, 2:20 am)
Average67 °F74%30.10 "Hg
* Reported Jun 5 2:20 am — Jun 20 2:20 am, Sangerhausen. Weather by CustomWeather, © 2021

Note: Actual official high and low records may vary slightly from our data, if they occured in-between our weather recording intervals... More about our weather records

Sangerhausen Weather History for the Previous 24 Hours

Scroll right to see more
 ConditionsComfort  
Time TempWeatherWind HumidityBarometerVisibility
2:20 am
Sun, Jun 20
70 °FClear.5 mph73%29.83 "Hg10 mi
1:50 am72 °FClear.6 mph69%29.86 "Hg10 mi
1:20 am72 °FPassing clouds.6 mph73%29.89 "HgN/A
12:50 am73 °FClear.5 mph69%29.89 "Hg10 mi
12:20 am73 °FPassing clouds.3 mph69%29.89 "HgN/A
11:50 pm
Sat, Jun 19
73 °FPassing clouds.6 mph69%29.89 "HgN/A
11:20 pm75 °FClear.5 mph65%29.92 "Hg10 mi
10:50 pm75 °FClear.6 mph65%29.92 "Hg10 mi
10:20 pm77 °FClear.7 mph57%29.92 "Hg10 mi
9:50 pm79 °FClear.6 mph65%29.92 "Hg10 mi
9:20 pm81 °FSunny.5 mph58%29.92 "Hg10 mi
8:50 pm81 °FSunny.6 mph58%29.92 "Hg10 mi
8:20 pm82 °FSunny.6 mph58%29.92 "Hg10 mi
7:50 pm84 °FPassing clouds.6 mph58%29.92 "HgN/A
7:20 pm84 °FPassing clouds.5 mph55%29.92 "HgN/A
6:50 pm86 °FPassing clouds.7 mph52%29.92 "HgN/A
6:20 pm86 °FPassing clouds.6 mph52%29.92 "HgN/A
5:50 pm88 °FPassing clouds.5 mph43%29.92 "HgN/A
5:20 pm86 °FPassing clouds.5 mph49%29.95 "HgN/A
4:50 pm88 °FPassing clouds.3 mph46%29.95 "HgN/A
4:20 pm86 °FPassing clouds.5 mph49%29.95 "HgN/A
3:50 pm86 °FPassing clouds.7 mph52%29.95 "HgN/A
3:20 pm86 °FPassing clouds.5 mph49%29.95 "HgN/A
2:50 pm86 °FPassing clouds.5 mph49%29.95 "HgN/A
2:20 pm84 °FPassing clouds.5 mph51%29.98 "HgN/A
1:50 pm82 °FPassing clouds.6 mph55%29.98 "HgN/A
1:20 pm82 °FPassing clouds.5 mph55%29.98 "HgN/A
12:50 pm81 °FSunny.3 mph62%30.01 "Hg10 mi
12:20 pm77 °FPassing clouds.3 mph74%30.01 "HgN/A
11:50 am75 °FSprinkles. Passing clouds.6 mph74%30.01 "HgN/A
11:20 am75 °FSprinkles. Passing clouds.7 mph74%30.01 "HgN/A
10:50 am77 °FSprinkles. Passing clouds.8 mph69%30.01 "HgN/A
10:20 am75 °FSprinkles. Passing clouds.12 mph74%30.01 "HgN/A
9:50 am75 °FScattered showers. Passing clouds.13 mph69%30.01 "HgN/A
9:20 am75 °FScattered showers. Passing clouds.12 mph74%30.01 "HgN/A
8:50 am72 °FScattered showers. Passing clouds.8 mph78%29.98 "HgN/A
8:20 am73 °FSprinkles. Passing clouds.9 mph74%29.98 "HgN/A
7:50 am73 °FScattered showers. Passing clouds.12 mph69%29.98 "HgN/A
7:20 am73 °FScattered showers. Passing clouds.10 mph69%29.98 "HgN/A
6:50 am70 °FPassing clouds.10 mph73%29.98 "HgN/A
6:20 am66 °FPassing clouds.9 mph78%29.98 "HgN/A
5:50 am66 °FPassing clouds.9 mph78%29.95 "HgN/A
5:20 am64 °FSunny.10 mph78%29.95 "Hg10 mi
4:50 am66 °FClear.10 mph73%29.95 "Hg10 mi
4:20 am68 °FClear.10 mph69%29.95 "Hg10 mi
3:50 am66 °FClear.9 mph78%29.95 "Hg10 mi
3:20 am66 °FClear.10 mph78%29.95 "Hg10 mi
Weather by CustomWeather, © 2021

See weather overview